Airfield :
LOGIN :

Register | Disclaimer

   EN    FR    IT 

 










Legend :    VFR   Marginal VFR   IFR   Intensive IFR   Very Intensive IFR
Visi :
Ceiling :
>= 8 km
>= 3000ft
5 to 8 km
1000 to 3000 ft
1500m to 5 km
500 to 1000 ft
800 to 1500m
200 to 500 ft
< 800m
< 200 ft
Symbols :   Thunderstorms  Fog  Heavy snow  Heavy precipitations  Wind > 20 kt
SIGMETs :     Misc.  Thunderstorms  Icing  Turbulence  Mountain Waves  Volcanic Ashes







- Airport Elevation : 247 ft
- IATA code : BLL


EKBI - Billund

CURRENT METAR :
  • 211720Z AUTO 11003KT 4400NDV BR OVC048/// 14/13 Q1021

EXPIRED METARs :
  • 211650Z AUTO 11003KT 6000NDV OVC042/// 14/13 Q1020
  • 211620Z AUTO 12003KT 9000NDV BKN039/// OVC050/// 14/13 Q1020
  • 211550Z 11005KT 8000 FEW015 BKN048 14/13 Q1020
  • 211520Z 13006KT 8000 FEW015CB BKN040 14/13 Q1020
  • 211450Z 12006KT 7000 -SHRA FEW005 FEW015CB BKN035 14/14 Q1020
  • 211426Z 16005KT 130V200 5000 -SHRA FEW005 SCT015CB BKN030 15/14 Q1020

TAF TAF EKBI
Valid from the 21 at 12:00 until the 22 at 12:00 UTC


211052Z 2112/2212 12006KT 9999 SCT012 BKN040
TEMPO 2112/2121 BKN012
TEMPO 2121/2207 2000 BR BKN004
TEMPO 2207/2209 4000 BR BKN008
TEMPO 2209/2212 BKN012
No reported NOTAMs for that airfield.



MET'MAP, your aeronautical weather chart ! - Copyright ORBIFLY December 2007 - Disclaimer

ORBIFLY MET'MAP TEAM :

Programming & Development : Alexandra Zaïnal
Concept & Development : Baudouin d'Aumeries
Co-Development & Prog : Marc-Olivier Méhu
Technical & hardware support : Manuel Goepfert

Contact : metmap@orbifly.com




SOURCES & CREDITS :

   NOAA